Terminal Aerodrome Forecast
Issued by NWS

Home | Current Version | Previous Version | Text Only | Print | Product List | Glossary On
Versions: 1 2 3 4 5 6 7 8 9 10 11 12 13 14 15 16 17 18 19 20 21 22 23 24 25 26 27
000
FTUS45 KRIW 282300
TAFPNA
TAF
KPNA 282324Z 2900/2924 30012G18KT P6SM SCT090
     FM290100 32008KT P6SM FEW100 SCT200
     FM290600 VRB04KT P6SM SCT100
     FM292000 VRB10G15KT P6SM VCTS SCT070CB BKN110
      AMD LTD TO CLD VIS AND WIND=

USA.gov is the U.S. government's official web portal to all federal, state and local government web resources and services.